createdAt,value
2023-02-26T00:01:32.931Z,0.28
2023-02-26T00:04:03.318Z,0.25
2023-02-26T00:06:34.237Z,0.26
2023-02-26T00:09:01.596Z,0.25
2023-02-26T00:11:29.165Z,0.24
2023-02-26T00:13:56.770Z,0.22
2023-02-26T00:16:26.902Z,0.21
2023-02-26T00:18:55.839Z,0.24
2023-02-26T00:21:24.887Z,0.29
2023-02-26T00:23:52.687Z,0.29
2023-02-26T00:26:20.552Z,0.27
2023-02-26T00:28:48.077Z,0.28
2023-02-26T00:31:16.924Z,0.34
2023-02-26T00:33:45.321Z,0.41
2023-02-26T00:36:18.098Z,0.47
2023-02-26T00:38:59.481Z,0.56
2023-02-26T00:41:26.937Z,0.61
2023-02-26T00:43:54.234Z,0.66
2023-02-26T00:46:47.432Z,0.64
2023-02-26T00:49:32.034Z,0.58
2023-02-26T00:52:02.990Z,0.59
2023-02-26T00:54:31.754Z,0.59
2023-02-26T00:57:00.269Z,0.57
2023-02-26T00:59:27.208Z,0.60
2023-02-26T01:01:54.144Z,0.62
2023-02-26T01:04:23.346Z,0.64
2023-02-26T01:06:57.990Z,0.67
2023-02-26T01:09:35.256Z,0.72
2023-02-26T01:12:10.038Z,0.70
2023-02-26T01:14:37.967Z,0.71
2023-02-26T01:17:32.215Z,0.70
2023-02-26T01:20:10.244Z,0.74
2023-02-26T01:22:57.476Z,0.75
2023-02-26T01:25:50.611Z,0.80
2023-02-26T01:28:18.328Z,0.83
2023-02-26T01:30:46.270Z,0.86
2023-02-26T01:33:48.099Z,0.92
2023-02-26T01:36:23.497Z,0.98
2023-02-26T01:39:51.645Z,0.96
2023-02-26T01:42:24.086Z,0.97
2023-02-26T01:45:05.567Z,0.99
2023-02-26T01:47:52.122Z,1.03
2023-02-26T01:50:29.795Z,1.04
2023-02-26T01:53:25.961Z,1.01
2023-02-26T01:56:00.603Z,0.97
2023-02-26T01:58:33.521Z,0.95
2023-02-26T02:01:02.406Z,0.95
2023-02-26T02:03:34.706Z,0.97
2023-02-26T02:06:09.282Z,0.99
2023-02-26T02:08:36.638Z,1.02
2023-02-26T02:11:07.544Z,1.05
2023-02-26T02:13:40.371Z,1.09
2023-02-26T02:17:03.233Z,1.08
2023-02-26T02:20:10.251Z,1.10
2023-02-26T02:23:11.361Z,1.12
2023-02-26T02:26:07.034Z,1.16
2023-02-26T02:29:21.735Z,1.18
2023-02-26T02:32:04.760Z,1.18
2023-02-26T02:34:50.207Z,1.18
2023-02-26T02:37:25.973Z,1.17
2023-02-26T02:40:29.209Z,1.11
2023-02-26T02:43:04.015Z,1.11
2023-02-26T02:45:57.063Z,1.11
2023-02-26T02:48:35.111Z,1.13
2023-02-26T02:51:11.650Z,1.12
2023-02-26T02:53:44.467Z,1.06
2023-02-26T02:56:18.305Z,1.06
2023-02-26T02:58:51.669Z,1.04
2023-02-26T03:01:21.956Z,1.02
2023-02-26T03:04:07.970Z,0.97
2023-02-26T03:06:35.981Z,0.99
2023-02-26T03:09:06.393Z,0.97
2023-02-26T03:11:33.843Z,0.98
2023-02-26T03:14:01.559Z,0.98
2023-02-26T03:17:15.674Z,0.92
2023-02-26T03:19:57.258Z,0.93
2023-02-26T03:23:04.769Z,0.96
2023-02-26T03:25:48.582Z,0.90
2023-02-26T03:28:48.649Z,0.88
2023-02-26T03:31:29.473Z,0.87
2023-02-26T03:34:41.569Z,0.89
2023-02-26T03:37:20.076Z,0.90
2023-02-26T03:39:54.711Z,0.92
2023-02-26T03:42:52.431Z,0.92
2023-02-26T03:45:32.170Z,0.90
2023-02-26T03:48:01.662Z,0.82
2023-02-26T03:50:37.219Z,0.79
2023-02-26T03:53:10.448Z,0.79
2023-02-26T03:55:48.086Z,0.82
2023-02-26T03:58:15.164Z,0.84
2023-02-26T04:00:47.095Z,0.78
2023-02-26T04:03:27.219Z,0.76
2023-02-26T04:05:54.960Z,0.80
2023-02-26T04:08:23.570Z,0.85
2023-02-26T04:11:06.274Z,0.85
2023-02-26T04:13:34.961Z,0.88
2023-02-26T04:16:01.934Z,0.89
2023-02-26T04:18:28.842Z,0.90
2023-02-26T04:20:55.957Z,0.90
2023-02-26T04:23:22.970Z,0.88
2023-02-26T04:25:49.912Z,0.86
2023-02-26T04:28:17.115Z,0.85
2023-02-26T04:30:44.683Z,0.85
2023-02-26T04:33:11.589Z,0.87
2023-02-26T04:35:38.804Z,0.87
2023-02-26T04:38:05.810Z,0.86
2023-02-26T04:40:33.019Z,0.85
2023-02-26T04:42:59.989Z,0.86
2023-02-26T04:45:26.977Z,0.88
2023-02-26T04:47:53.856Z,0.85
2023-02-26T04:50:20.984Z,0.85
2023-02-26T04:52:47.901Z,0.86
2023-02-26T04:55:14.850Z,0.88
2023-02-26T04:57:41.779Z,0.93
2023-02-26T05:00:09.751Z,0.93
2023-02-26T05:02:36.816Z,0.94
2023-02-26T05:05:04.289Z,0.96
2023-02-26T05:07:31.286Z,0.96
2023-02-26T05:09:58.456Z,0.92
2023-02-26T05:12:25.678Z,0.88
2023-02-26T05:14:52.564Z,0.84
2023-02-26T05:17:19.502Z,0.86
2023-02-26T05:19:46.381Z,0.86
2023-02-26T05:22:13.978Z,0.84
2023-02-26T05:24:41.203Z,0.84
2023-02-26T05:27:08.282Z,0.86
2023-02-26T05:29:35.334Z,0.88
2023-02-26T05:32:03.827Z,0.84
2023-02-26T05:34:30.775Z,0.84
2023-02-26T05:36:57.694Z,0.86
2023-02-26T05:39:24.677Z,0.87
2023-02-26T05:41:53.196Z,0.89
2023-02-26T05:44:20.069Z,0.90
2023-02-26T05:46:46.995Z,0.90
2023-02-26T05:49:14.013Z,0.90
2023-02-26T05:51:42.868Z,0.95
2023-02-26T05:54:10.520Z,1.02
2023-02-26T05:56:37.422Z,1.06
2023-02-26T05:59:04.570Z,1.05
2023-02-26T06:01:31.767Z,1.00
2023-02-26T06:03:58.714Z,0.99
2023-02-26T06:06:27.110Z,0.99
2023-02-26T06:08:54.188Z,1.02
2023-02-26T06:11:21.088Z,1.06
2023-02-26T06:13:48.597Z,1.09
2023-02-26T06:16:15.779Z,1.11
2023-02-26T06:18:42.649Z,1.09
2023-02-26T06:21:09.563Z,1.08
2023-02-26T06:23:36.546Z,1.06
2023-02-26T06:26:05.102Z,1.13
2023-02-26T06:28:32.583Z,1.17
2023-02-26T06:30:59.695Z,1.20
2023-02-26T06:33:26.656Z,1.23
2023-02-26T06:35:53.759Z,1.33
2023-02-26T06:38:20.735Z,1.39
2023-02-26T06:40:48.524Z,1.37
2023-02-26T06:43:15.528Z,1.42
2023-02-26T06:45:42.504Z,1.45
2023-02-26T06:48:09.438Z,1.49
2023-02-26T06:50:36.507Z,1.53
2023-02-26T06:53:03.497Z,1.68
2023-02-26T06:55:30.478Z,2.02
2023-02-26T06:57:58.417Z,2.83
2023-02-26T07:00:26.536Z,3.86
2023-02-26T07:02:53.514Z,4.93
2023-02-26T07:05:21.161Z,5.76
2023-02-26T07:07:48.557Z,6.38
2023-02-26T07:10:15.474Z,6.95
2023-02-26T07:12:42.613Z,7.31
2023-02-26T07:15:10.117Z,7.18
2023-02-26T07:17:37.075Z,6.63
2023-02-26T07:20:10.091Z,6.04
2023-02-26T07:22:38.445Z,5.50
2023-02-26T07:25:07.246Z,5.02
2023-02-26T07:27:34.593Z,4.56
2023-02-26T07:30:02.125Z,4.18
2023-02-26T07:32:29.217Z,3.81
2023-02-26T07:34:56.317Z,3.70
2023-02-26T07:37:24.308Z,3.65
2023-02-26T07:39:51.758Z,3.65
2023-02-26T07:42:18.937Z,3.81
2023-02-26T07:44:46.009Z,4.42
2023-02-26T07:47:13.750Z,5.40
2023-02-26T07:49:40.731Z,6.33
2023-02-26T07:52:08.288Z,6.99
2023-02-26T07:54:38.158Z,7.33
2023-02-26T07:57:05.200Z,7.35
2023-02-26T07:59:32.243Z,7.34
2023-02-26T08:01:59.183Z,7.70
2023-02-26T08:04:26.301Z,8.02
2023-02-26T08:06:57.343Z,8.62
2023-02-26T08:09:24.350Z,9.17
2023-02-26T08:11:51.293Z,9.50
2023-02-26T08:14:18.445Z,10.02
2023-02-26T08:16:45.428Z,10.44
2023-02-26T08:19:12.635Z,10.46
2023-02-26T08:21:39.596Z,10.25
2023-02-26T08:24:06.787Z,10.30
2023-02-26T08:26:37.341Z,10.35
2023-02-26T08:29:05.254Z,10.16
2023-02-26T08:31:34.533Z,9.98
2023-02-26T08:34:01.961Z,9.94
2023-02-26T08:36:28.880Z,10.17
2023-02-26T08:38:55.825Z,10.36
2023-02-26T08:41:23.410Z,10.72
2023-02-26T08:43:51.397Z,11.03
2023-02-26T08:46:18.409Z,10.94
2023-02-26T08:48:45.404Z,10.98
2023-02-26T08:51:12.357Z,10.81
2023-02-26T08:53:40.324Z,10.85
2023-02-26T08:56:07.541Z,11.21
2023-02-26T08:58:34.485Z,11.56
2023-02-26T09:01:01.394Z,11.78
2023-02-26T09:03:28.353Z,11.92
2023-02-26T09:05:55.311Z,12.08
2023-02-26T09:08:22.273Z,12.14
2023-02-26T09:10:49.388Z,12.24
2023-02-26T09:13:16.369Z,12.49
2023-02-26T09:15:43.391Z,12.84
2023-02-26T09:18:15.426Z,12.95
2023-02-26T09:20:44.184Z,13.12
2023-02-26T09:23:12.402Z,13.46
2023-02-26T09:25:39.465Z,13.48
2023-02-26T09:28:06.532Z,12.81
2023-02-26T09:30:33.730Z,12.13
2023-02-26T09:33:00.719Z,11.71
2023-02-26T09:35:27.729Z,11.16
2023-02-26T09:37:54.760Z,10.74
2023-02-26T09:40:29.085Z,10.40
2023-02-26T09:43:43.321Z,10.59
2023-02-26T09:46:34.375Z,10.74
2023-02-26T09:49:38.523Z,10.69
2023-02-26T09:52:49.236Z,10.81
2023-02-26T09:55:31.556Z,10.67
2023-02-26T09:58:05.392Z,9.78
2023-02-26T10:00:56.169Z,10.10
2023-02-26T10:03:54.529Z,10.25
2023-02-26T10:06:33.961Z,10.24
2023-02-26T10:09:19.344Z,9.74
2023-02-26T10:11:46.316Z,9.90
2023-02-26T10:14:23.553Z,9.57
2023-02-26T10:16:58.490Z,9.18
2023-02-26T10:19:34.933Z,9.36
2023-02-26T10:22:15.759Z,9.65
2023-02-26T10:24:52.246Z,9.55
2023-02-26T10:27:40.310Z,9.25
2023-02-26T10:30:41.421Z,8.87
2023-02-26T10:33:18.624Z,8.72
2023-02-26T10:35:54.641Z,8.44
2023-02-26T10:38:27.556Z,7.90
2023-02-26T10:41:13.186Z,7.11
2023-02-26T10:43:53.164Z,6.58
2023-02-26T10:46:46.430Z,6.45
2023-02-26T10:49:42.541Z,6.57
2023-02-26T10:52:18.650Z,6.91
2023-02-26T10:55:04.050Z,7.11
2023-02-26T10:57:36.176Z,7.21
2023-02-26T11:00:06.468Z,6.90
2023-02-26T11:02:46.687Z,6.55
2023-02-26T11:05:28.999Z,6.57
2023-02-26T11:08:04.892Z,6.86
2023-02-26T11:10:49.553Z,7.04
2023-02-26T11:13:16.488Z,7.42
2023-02-26T11:15:47.327Z,7.75
2023-02-26T11:18:20.723Z,7.58
2023-02-26T11:20:49.161Z,7.18
2023-02-26T11:23:22.234Z,6.58
2023-02-26T11:26:16.769Z,6.04
2023-02-26T11:28:50.472Z,5.64
2023-02-26T11:31:21.574Z,5.46
2023-02-26T11:34:11.917Z,5.38
2023-02-26T11:36:42.690Z,5.33
2023-02-26T11:39:26.186Z,5.27
2023-02-26T11:41:57.637Z,5.37
2023-02-26T11:44:46.360Z,5.45
2023-02-26T11:47:30.173Z,5.46
2023-02-26T11:50:05.861Z,5.36
2023-02-26T11:52:41.364Z,5.10
2023-02-26T11:55:28.260Z,4.83
2023-02-26T11:57:56.614Z,4.70
2023-02-26T12:00:40.090Z,4.57
2023-02-26T12:03:16.672Z,4.64
2023-02-26T12:05:43.798Z,4.80
2023-02-26T12:08:42.226Z,5.04
2023-02-26T12:11:27.888Z,5.18
2023-02-26T12:14:32.876Z,5.14
2023-02-26T12:17:56.340Z,4.93
2023-02-26T12:20:27.494Z,4.79
2023-02-26T12:23:34.623Z,4.65
2023-02-26T12:26:32.448Z,4.55
2023-02-26T12:30:03.377Z,4.48
2023-02-26T12:32:47.580Z,4.53
2023-02-26T12:35:55.826Z,4.55
2023-02-26T12:38:54.447Z,4.67
2023-02-26T12:41:35.884Z,4.89
2023-02-26T12:44:32.270Z,5.06
2023-02-26T12:47:31.220Z,4.93
2023-02-26T12:50:40.138Z,4.87
2023-02-26T12:53:51.520Z,4.86
2023-02-26T12:56:52.607Z,4.82
2023-02-26T12:59:48.963Z,4.77
2023-02-26T13:02:36.849Z,4.96
2023-02-26T13:05:35.369Z,5.15
2023-02-26T13:08:33.322Z,5.24
2023-02-26T13:11:52.098Z,5.26
2023-02-26T13:15:02.002Z,5.21
2023-02-26T13:17:37.592Z,5.18
2023-02-26T13:20:18.372Z,5.14
2023-02-26T13:22:59.328Z,5.14
2023-02-26T13:25:48.688Z,5.16
2023-02-26T13:28:34.746Z,4.97
2023-02-26T13:31:04.193Z,4.83
2023-02-26T13:33:33.716Z,4.68
2023-02-26T13:36:02.680Z,4.65
2023-02-26T13:38:54.969Z,4.66
2023-02-26T13:42:09.052Z,4.70
2023-02-26T13:45:00.629Z,4.72
2023-02-26T13:48:17.941Z,4.90
2023-02-26T13:50:57.694Z,5.11
2023-02-26T13:53:28.224Z,5.21
2023-02-26T13:56:07.369Z,5.13
2023-02-26T13:58:39.597Z,4.91
2023-02-26T14:01:32.454Z,4.69
2023-02-26T14:04:23.522Z,4.64
2023-02-26T14:07:12.151Z,4.61
2023-02-26T14:10:05.261Z,4.59
2023-02-26T14:12:38.289Z,4.65
2023-02-26T14:15:29.315Z,4.74
2023-02-26T14:18:21.187Z,4.69
2023-02-26T14:20:48.233Z,4.66
2023-02-26T14:23:35.847Z,4.49
2023-02-26T14:26:12.446Z,4.37
2023-02-26T14:29:14.988Z,4.22
2023-02-26T14:31:51.177Z,4.30
2023-02-26T14:34:30.087Z,4.38
2023-02-26T14:37:07.023Z,4.47
2023-02-26T14:40:09.185Z,4.53
2023-02-26T14:42:45.405Z,4.54
2023-02-26T14:45:39.008Z,4.49
2023-02-26T14:48:13.373Z,4.38
2023-02-26T14:50:55.218Z,4.31
2023-02-26T14:53:43.184Z,4.28
2023-02-26T14:56:27.964Z,4.27
2023-02-26T15:00:01.636Z,4.28
2023-02-26T15:03:02.494Z,4.21
2023-02-26T15:06:03.057Z,4.20
2023-02-26T15:09:09.427Z,4.05
2023-02-26T15:11:52.552Z,3.87
2023-02-26T15:14:31.435Z,3.70
2023-02-26T15:17:46.915Z,3.52
2023-02-26T15:21:08.753Z,3.53
2023-02-26T15:23:52.637Z,3.65
2023-02-26T15:26:29.974Z,3.80
2023-02-26T15:28:58.937Z,3.93
2023-02-26T15:31:36.360Z,4.06
2023-02-26T15:34:04.092Z,4.17
2023-02-26T15:36:32.511Z,4.28
2023-02-26T15:39:03.843Z,4.35
2023-02-26T15:41:32.876Z,4.42
2023-02-26T15:44:10.718Z,4.37
2023-02-26T15:46:44.348Z,4.35
2023-02-26T15:49:39.284Z,4.23
2023-02-26T15:52:09.317Z,4.07
2023-02-26T15:54:48.215Z,3.94
2023-02-26T15:57:17.838Z,3.83
2023-02-26T15:59:49.780Z,3.66
2023-02-26T16:02:22.573Z,3.49
2023-02-26T16:04:49.592Z,3.38
2023-02-26T16:07:16.534Z,3.30
2023-02-26T16:09:49.060Z,3.19
2023-02-26T16:12:21.967Z,3.10
2023-02-26T16:15:01.064Z,3.00
2023-02-26T16:17:35.267Z,2.94
2023-02-26T16:20:14.934Z,2.85
2023-02-26T16:22:59.231Z,2.78
2023-02-26T16:25:56.369Z,2.70
2023-02-26T16:28:51.101Z,2.65
2023-02-26T16:31:25.662Z,2.59
2023-02-26T16:34:04.249Z,2.56
2023-02-26T16:36:37.922Z,2.51
2023-02-26T16:39:07.752Z,2.47
2023-02-26T16:41:38.550Z,2.43
2023-02-26T16:44:31.521Z,2.37
2023-02-26T16:46:59.559Z,2.34
2023-02-26T16:49:38.953Z,2.30
2023-02-26T16:52:06.752Z,2.26
2023-02-26T16:54:41.588Z,2.23
2023-02-26T16:57:19.683Z,2.20
2023-02-26T16:59:56.703Z,2.17
2023-02-26T17:02:28.433Z,2.13
2023-02-26T17:05:08.622Z,2.12
2023-02-26T17:07:46.015Z,2.15
2023-02-26T17:10:33.004Z,2.15
2023-02-26T17:13:24.898Z,2.15
2023-02-26T17:15:54.245Z,2.11
2023-02-26T17:18:22.220Z,2.09
2023-02-26T17:20:50.017Z,2.06
2023-02-26T17:23:19.021Z,2.02
2023-02-26T17:25:50.361Z,2.00
2023-02-26T17:28:24.569Z,1.99
2023-02-26T17:30:52.865Z,2.03
2023-02-26T17:33:20.886Z,2.08
2023-02-26T17:35:48.608Z,2.17
2023-02-26T17:38:17.001Z,2.24
2023-02-26T17:40:47.642Z,2.32
2023-02-26T17:43:14.735Z,2.40
2023-02-26T17:45:42.166Z,2.45
2023-02-26T17:48:11.288Z,2.45
2023-02-26T17:50:51.974Z,2.46
2023-02-26T17:53:22.133Z,2.44
2023-02-26T17:55:53.196Z,2.40
2023-02-26T17:58:30.270Z,2.32
2023-02-26T18:00:57.823Z,2.20
2023-02-26T18:03:24.844Z,2.09
2023-02-26T18:05:54.672Z,2.00
2023-02-26T18:08:25.872Z,1.92
2023-02-26T18:10:54.321Z,1.83
2023-02-26T18:13:22.970Z,1.75
2023-02-26T18:15:53.077Z,1.67
2023-02-26T18:18:21.670Z,1.62
2023-02-26T18:20:48.964Z,1.55
2023-02-26T18:23:16.814Z,1.50
2023-02-26T18:25:50.405Z,1.46
2023-02-26T18:28:23.242Z,1.38
2023-02-26T18:30:51.219Z,1.34
2023-02-26T18:33:19.189Z,1.30
2023-02-26T18:35:54.961Z,1.26
2023-02-26T18:38:25.985Z,1.22
2023-02-26T18:40:53.814Z,1.19
2023-02-26T18:43:21.364Z,1.16
2023-02-26T18:45:50.623Z,1.12
2023-02-26T18:48:21.153Z,1.09
2023-02-26T18:50:49.228Z,1.05
2023-02-26T18:53:17.610Z,1.01
2023-02-26T18:55:45.260Z,0.98
2023-02-26T18:58:12.372Z,0.97
2023-02-26T19:00:39.328Z,0.93
2023-02-26T19:03:06.256Z,0.90
2023-02-26T19:05:33.150Z,0.86
2023-02-26T19:08:01.032Z,0.82
2023-02-26T19:10:31.775Z,0.80
2023-02-26T19:12:59.067Z,0.77
2023-02-26T19:15:27.014Z,0.75
2023-02-26T19:17:54.096Z,0.72
2023-02-26T19:20:21.088Z,0.69
2023-02-26T19:22:48.885Z,0.66
2023-02-26T19:25:16.051Z,0.64
2023-02-26T19:27:42.931Z,0.63
2023-02-26T19:30:10.667Z,0.60
2023-02-26T19:32:37.760Z,0.59
2023-02-26T19:35:05.195Z,0.58
2023-02-26T19:37:32.320Z,0.56
2023-02-26T19:39:59.297Z,0.53
2023-02-26T19:42:28.358Z,0.50
2023-02-26T19:44:55.309Z,0.46
2023-02-26T19:47:22.255Z,0.45
2023-02-26T19:49:49.187Z,0.43
2023-02-26T19:52:16.146Z,0.40
2023-02-26T19:54:43.081Z,0.40
2023-02-26T19:57:10.031Z,0.40
2023-02-26T19:59:37.016Z,0.41
2023-02-26T20:02:05.501Z,0.39
2023-02-26T20:04:33.377Z,0.38
2023-02-26T20:07:00.263Z,0.37
2023-02-26T20:09:28.007Z,0.37
2023-02-26T20:11:55.128Z,0.35
2023-02-26T20:14:22.089Z,0.34
2023-02-26T20:16:49.024Z,0.32
2023-02-26T20:19:16.394Z,0.30
2023-02-26T20:21:43.645Z,0.29
2023-02-26T20:24:11.077Z,0.27
2023-02-26T20:26:38.142Z,0.27
2023-02-26T20:29:05.246Z,0.24
2023-02-26T20:31:32.214Z,0.23
2023-02-26T20:33:59.224Z,0.25
2023-02-26T20:36:26.373Z,0.25
2023-02-26T20:38:53.289Z,0.24
2023-02-26T20:41:20.406Z,0.24
2023-02-26T20:43:47.743Z,0.23
2023-02-26T20:46:14.822Z,0.23
2023-02-26T20:48:43.653Z,0.22
2023-02-26T20:51:12.086Z,0.22
2023-02-26T20:53:39.997Z,0.18
2023-02-26T20:56:07.565Z,0.18
2023-02-26T20:58:34.717Z,0.15
2023-02-26T21:01:01.686Z,0.14
2023-02-26T21:03:28.646Z,0.13
2023-02-26T21:05:56.277Z,0.10
2023-02-26T21:08:23.525Z,0.08
2023-02-26T21:10:53.540Z,0.05
2023-02-26T21:13:20.831Z,0.04
2023-02-26T21:15:50.208Z,0.04
2023-02-26T21:18:17.356Z,0.01
2023-02-26T21:20:44.291Z,0.01
2023-02-26T21:23:11.319Z,-0.01
2023-02-26T21:25:39.580Z,-0.02
2023-02-26T21:28:06.649Z,-0.03
2023-02-26T21:30:33.595Z,-0.03
2023-02-26T21:33:00.495Z,-0.02
2023-02-26T21:35:27.501Z,0.01
2023-02-26T21:37:54.661Z,0.06
2023-02-26T21:40:22.699Z,0.15
2023-02-26T21:42:49.651Z,0.23
2023-02-26T21:45:16.578Z,0.32
2023-02-26T21:47:43.565Z,0.39
2023-02-26T21:50:11.245Z,0.43
2023-02-26T21:52:38.198Z,0.44
2023-02-26T21:55:06.108Z,0.41
2023-02-26T21:57:33.039Z,0.38
2023-02-26T22:00:00.043Z,0.35
2023-02-26T22:02:27.078Z,0.36
2023-02-26T22:04:54.142Z,0.33
2023-02-26T22:07:21.028Z,0.32
2023-02-26T22:09:49.107Z,0.27
2023-02-26T22:12:17.286Z,0.22
2023-02-26T22:14:44.575Z,0.15
2023-02-26T22:17:11.597Z,0.07
2023-02-26T22:19:38.509Z,0.00
2023-02-26T22:22:05.496Z,-0.02
2023-02-26T22:24:32.567Z,-0.02
2023-02-26T22:26:59.466Z,-0.04
2023-02-26T22:29:26.384Z,-0.04
2023-02-26T22:31:54.076Z,-0.06
2023-02-26T22:34:21.064Z,-0.05
2023-02-26T22:36:48.167Z,-0.06
2023-02-26T22:39:15.074Z,-0.04
2023-02-26T22:41:42.065Z,-0.01
2023-02-26T22:44:09.044Z,0.05
2023-02-26T22:46:35.993Z,0.11
2023-02-26T22:49:03.202Z,0.16
2023-02-26T22:51:32.279Z,0.20
2023-02-26T22:54:01.101Z,0.26
2023-02-26T22:56:28.701Z,0.33
2023-02-26T22:58:56.774Z,0.39
2023-02-26T23:01:24.068Z,0.43
2023-02-26T23:03:51.038Z,0.47
2023-02-26T23:06:18.090Z,0.51
2023-02-26T23:08:45.075Z,0.52
2023-02-26T23:11:12.230Z,0.52
2023-02-26T23:13:39.329Z,0.52
2023-02-26T23:16:09.311Z,0.52
2023-02-26T23:18:37.131Z,0.54
2023-02-26T23:21:08.265Z,0.56
2023-02-26T23:23:35.454Z,0.56
2023-02-26T23:26:02.767Z,0.58
2023-02-26T23:28:30.353Z,0.60
2023-02-26T23:30:57.366Z,0.58
2023-02-26T23:33:24.567Z,0.56
2023-02-26T23:35:51.845Z,0.47
2023-02-26T23:38:18.836Z,0.39
2023-02-26T23:40:45.743Z,0.31
2023-02-26T23:43:12.635Z,0.25
2023-02-26T23:45:39.639Z,0.23
2023-02-26T23:48:06.817Z,0.24
2023-02-26T23:50:33.811Z,0.23
2023-02-26T23:53:00.756Z,0.19
2023-02-26T23:55:27.729Z,0.13
2023-02-26T23:57:54.599Z,0.07
